sensor_id;sensor_type;location;lat;lon;timestamp;temperature;humidity
10441;DHT22;5268;49.346;9.522;2024-03-08T04:12:53;2.10;99.90
10441;DHT22;5268;49.346;9.522;2024-03-08T04:17:58;2.00;99.90
10441;DHT22;5268;49.346;9.522;2024-03-08T04:23:01;1.90;99.90
10441;DHT22;5268;49.346;9.522;2024-03-08T04:28:06;1.80;99.90
10441;DHT22;5268;49.346;9.522;2024-03-08T04:33:10;1.70;99.90
10441;DHT22;5268;49.346;9.522;2024-03-08T04:38:13;1.60;99.90
10441;DHT22;5268;49.346;9.522;2024-03-08T04:43:17;1.60;99.90
10441;DHT22;5268;49.346;9.522;2024-03-08T04:48:21;1.60;99.90
10441;DHT22;5268;49.346;9.522;2024-03-08T04:53:23;1.60;99.90
10441;DHT22;5268;49.346;9.522;2024-03-08T04:58:26;1.70;99.90
10441;DHT22;5268;49.346;9.522;2024-03-08T05:03:48;1.70;99.90
10441;DHT22;5268;49.346;9.522;2024-03-08T05:09:00;1.80;99.90
10441;DHT22;5268;49.346;9.522;2024-03-08T05:14:17;1.80;99.90
10441;DHT22;5268;49.346;9.522;2024-03-08T05:19:23;1.80;99.90
10441;DHT22;5268;49.346;9.522;2024-03-08T05:24:32;1.80;99.90
10441;DHT22;5268;49.346;9.522;2024-03-08T05:29:51;1.70;99.90
10441;DHT22;5268;49.346;9.522;2024-03-08T05:45:37;1.70;99.90
10441;DHT22;5268;49.346;9.522;2024-03-08T05:50:39;1.70;99.90
10441;DHT22;5268;49.346;9.522;2024-03-08T05:56:13;1.70;99.90
10441;DHT22;5268;49.346;9.522;2024-03-08T06:02:09;1.80;99.90
10441;DHT22;5268;49.346;9.522;2024-03-08T06:07:33;1.80;99.90
10441;DHT22;5268;49.346;9.522;2024-03-08T06:31:24;1.80;99.90
10441;DHT22;5268;49.346;9.522;2024-03-08T06:42:48;2.00;99.90
10441;DHT22;5268;49.346;9.522;2024-03-08T06:49:11;2.10;99.90
10441;DHT22;5268;49.346;9.522;2024-03-08T06:54:13;2.30;99.90
10441;DHT22;5268;49.346;9.522;2024-03-08T07:05:06;2.80;99.90
10441;DHT22;5268;49.346;9.522;2024-03-08T07:16:08;3.20;99.90
10441;DHT22;5268;49.346;9.522;2024-03-08T07:21:33;3.50;99.90
10441;DHT22;5268;49.346;9.522;2024-03-08T07:27:08;3.40;99.90
10441;DHT22;5268;49.346;9.522;2024-03-08T07:32:25;3.20;99.90
10441;DHT22;5268;49.346;9.522;2024-03-08T07:37:54;3.20;99.90
10441;DHT22;5268;49.346;9.522;2024-03-08T07:49:04;3.30;99.90
10441;DHT22;5268;49.346;9.522;2024-03-08T07:54:30;3.20;99.90
10441;DHT22;5268;49.346;9.522;2024-03-08T07:59:55;3.30;99.90
10441;DHT22;5268;49.346;9.522;2024-03-08T08:05:18;3.40;99.90
10441;DHT22;5268;49.346;9.522;2024-03-08T08:16:43;3.60;99.90
10441;DHT22;5268;49.346;9.522;2024-03-08T08:45:52;3.60;99.90
10441;DHT22;5268;49.346;9.522;2024-03-08T08:51:38;3.80;99.90
10441;DHT22;5268;49.346;9.522;2024-03-08T08:56:59;3.90;99.90
10441;DHT22;5268;49.346;9.522;2024-03-08T09:02:27;3.90;99.90
10441;DHT22;5268;49.346;9.522;2024-03-08T09:14:01;4.10;99.90
10441;DHT22;5268;49.346;9.522;2024-03-08T09:19:27;4.30;99.90
10441;DHT22;5268;49.346;9.522;2024-03-08T09:24:31;4.40;99.90
10441;DHT22;5268;49.346;9.522;2024-03-08T09:29:35;4.40;99.90
10441;DHT22;5268;49.346;9.522;2024-03-08T09:35:08;4.50;99.90
10441;DHT22;5268;49.346;9.522;2024-03-08T09:40:32;4.80;99.90
10441;DHT22;5268;49.346;9.522;2024-03-08T09:52:08;5.10;99.90
10441;DHT22;5268;49.346;9.522;2024-03-08T09:57:29;5.60;99.90
10441;DHT22;5268;49.346;9.522;2024-03-08T10:02:32;5.80;99.90
10441;DHT22;5268;49.346;9.522;2024-03-08T10:14:13;6.10;99.90
10441;DHT22;5268;49.346;9.522;2024-03-08T10:19:21;6.30;99.90
10441;DHT22;5268;49.346;9.522;2024-03-08T10:30:39;6.90;99.90
10441;DHT22;5268;49.346;9.522;2024-03-08T10:36:14;7.50;99.90
10441;DHT22;5268;49.346;9.522;2024-03-08T10:41:24;7.30;99.90
10441;DHT22;5268;49.346;9.522;2024-03-08T10:46:33;7.30;99.90
10441;DHT22;5268;49.346;9.522;2024-03-08T10:51:41;7.60;99.90
10441;DHT22;5268;49.346;9.522;2024-03-08T10:56:46;7.90;99.90
10441;DHT22;5268;49.346;9.522;2024-03-08T11:07:54;8.20;99.90
10441;DHT22;5268;49.346;9.522;2024-03-08T11:24:38;9.10;99.90
10441;DHT22;5268;49.346;9.522;2024-03-08T11:30:24;9.10;99.90
10441;DHT22;5268;49.346;9.522;2024-03-08T11:35:52;8.50;99.90
10441;DHT22;5268;49.346;9.522;2024-03-08T11:41:08;9.10;99.90
10441;DHT22;5268;49.346;9.522;2024-03-08T11:46:20;9.20;99.90
10441;DHT22;5268;49.346;9.522;2024-03-08T11:52:02;9.60;99.90
10441;DHT22;5268;49.346;9.522;2024-03-08T11:57:18;9.70;99.90
10441;DHT22;5268;49.346;9.522;2024-03-08T12:02:22;9.70;99.90
10441;DHT22;5268;49.346;9.522;2024-03-08T12:07:37;9.90;99.90
10441;DHT22;5268;49.346;9.522;2024-03-08T12:12:39;10.00;99.90
10441;DHT22;5268;49.346;9.522;2024-03-08T12:18:08;10.10;99.90
10441;DHT22;5268;49.346;9.522;2024-03-08T12:23:25;10.30;99.90
10441;DHT22;5268;49.346;9.522;2024-03-08T12:28:29;10.40;99.90
10441;DHT22;5268;49.346;9.522;2024-03-08T12:33:48;10.30;99.90
10441;DHT22;5268;49.346;9.522;2024-03-08T12:38:53;10.50;99.90
10441;DHT22;5268;49.346;9.522;2024-03-08T12:43:58;10.60;99.90
10441;DHT22;5268;49.346;9.522;2024-03-08T12:49:01;10.60;99.90
10441;DHT22;5268;49.346;9.522;2024-03-08T12:54:06;10.80;99.90
10441;DHT22;5268;49.346;9.522;2024-03-08T12:59:09;11.20;99.90
10441;DHT22;5268;49.346;9.522;2024-03-08T13:04:12;11.00;99.90
10441;DHT22;5268;49.346;9.522;2024-03-08T13:09:17;11.20;99.90
10441;DHT22;5268;49.346;9.522;2024-03-08T13:14:23;11.30;99.90
10441;DHT22;5268;49.346;9.522;2024-03-08T13:19:28;11.10;99.90
10441;DHT22;5268;49.346;9.522;2024-03-08T13:24:31;11.30;99.90
10441;DHT22;5268;49.346;9.522;2024-03-08T13:29:36;11.40;99.90
10441;DHT22;5268;49.346;9.522;2024-03-08T13:34:51;11.40;99.90
10441;DHT22;5268;49.346;9.522;2024-03-08T13:40:05;11.30;99.90
10441;DHT22;5268;49.346;9.522;2024-03-08T13:45:18;11.10;99.90
10441;DHT22;5268;49.346;9.522;2024-03-08T13:50:23;11.40;99.90
10441;DHT22;5268;49.346;9.522;2024-03-08T13:55:29;11.10;99.90
10441;DHT22;5268;49.346;9.522;2024-03-08T14:00:31;11.10;99.90
10441;DHT22;5268;49.346;9.522;2024-03-08T14:05:34;11.30;99.90
10441;DHT22;5268;49.346;9.522;2024-03-08T14:10:37;11.40;99.90
10441;DHT22;5268;49.346;9.522;2024-03-08T14:15:57;11.40;99.90
10441;DHT22;5268;49.346;9.522;2024-03-08T14:21:00;11.30;99.90
10441;DHT22;5268;49.346;9.522;2024-03-08T14:26:06;11.40;99.90
10441;DHT22;5268;49.346;9.522;2024-03-08T14:31:10;11.40;99.90
10441;DHT22;5268;49.346;9.522;2024-03-08T14:36:12;11.50;99.90
10441;DHT22;5268;49.346;9.522;2024-03-08T14:41:16;11.40;99.90
10441;DHT22;5268;49.346;9.522;2024-03-08T14:46:26;11.40;99.90
10441;DHT22;5268;49.346;9.522;2024-03-08T14:51:31;11.50;99.90
10441;DHT22;5268;49.346;9.522;2024-03-08T14:56:35;11.50;99.90
10441;DHT22;5268;49.346;9.522;2024-03-08T15:01:37;11.50;99.90
10441;DHT22;5268;49.346;9.522;2024-03-08T15:06:39;11.50;99.90
10441;DHT22;5268;49.346;9.522;2024-03-08T15:11:46;11.50;99.90
10441;DHT22;5268;49.346;9.522;2024-03-08T15:16:49;11.60;99.90
10441;DHT22;5268;49.346;9.522;2024-03-08T15:21:51;11.50;99.90
10441;DHT22;5268;49.346;9.522;2024-03-08T15:26:58;11.50;99.90
10441;DHT22;5268;49.346;9.522;2024-03-08T15:32:02;11.60;99.90
10441;DHT22;5268;49.346;9.522;2024-03-08T15:37:04;11.60;99.90
10441;DHT22;5268;49.346;9.522;2024-03-08T15:42:09;11.60;99.90
10441;DHT22;5268;49.346;9.522;2024-03-08T15:47:11;11.60;99.90
10441;DHT22;5268;49.346;9.522;2024-03-08T15:52:13;11.60;99.90
10441;DHT22;5268;49.346;9.522;2024-03-08T15:57:17;11.60;99.90
10441;DHT22;5268;49.346;9.522;2024-03-08T16:02:21;11.50;99.90
10441;DHT22;5268;49.346;9.522;2024-03-08T16:07:25;11.60;99.90
10441;DHT22;5268;49.346;9.522;2024-03-08T16:12:29;11.60;99.90
10441;DHT22;5268;49.346;9.522;2024-03-08T16:17:31;11.40;99.90
10441;DHT22;5268;49.346;9.522;2024-03-08T16:22:33;11.40;99.90
10441;DHT22;5268;49.346;9.522;2024-03-08T16:27:37;11.40;99.90
10441;DHT22;5268;49.346;9.522;2024-03-08T16:32:41;11.40;99.90
10441;DHT22;5268;49.346;9.522;2024-03-08T16:37:43;11.30;99.90
10441;DHT22;5268;49.346;9.522;2024-03-08T16:42:47;11.30;99.90
10441;DHT22;5268;49.346;9.522;2024-03-08T16:47:52;11.20;99.90
10441;DHT22;5268;49.346;9.522;2024-03-08T16:52:55;11.10;99.90
10441;DHT22;5268;49.346;9.522;2024-03-08T16:57:59;11.00;99.90
10441;DHT22;5268;49.346;9.522;2024-03-08T17:03:01;10.90;99.90
10441;DHT22;5268;49.346;9.522;2024-03-08T17:08:03;10.80;99.90
10441;DHT22;5268;49.346;9.522;2024-03-08T17:13:07;10.70;99.90
10441;DHT22;5268;49.346;9.522;2024-03-08T17:18:09;10.50;99.90
10441;DHT22;5268;49.346;9.522;2024-03-08T17:23:11;10.40;99.90
10441;DHT22;5268;49.346;9.522;2024-03-08T17:28:16;10.20;99.90
10441;DHT22;5268;49.346;9.522;2024-03-08T17:33:18;10.10;99.90
10441;DHT22;5268;49.346;9.522;2024-03-08T17:38:22;10.00;99.90
10441;DHT22;5268;49.346;9.522;2024-03-08T17:43:26;9.80;99.90
10441;DHT22;5268;49.346;9.522;2024-03-08T17:48:28;9.70;99.90
10441;DHT22;5268;49.346;9.522;2024-03-08T17:53:30;9.60;99.90
10441;DHT22;5268;49.346;9.522;2024-03-08T17:58:35;9.60;99.90
10441;DHT22;5268;49.346;9.522;2024-03-08T18:03:37;9.40;99.90
10441;DHT22;5268;49.346;9.522;2024-03-08T18:08:39;9.30;99.90
10441;DHT22;5268;49.346;9.522;2024-03-08T18:13:44;9.30;99.90
10441;DHT22;5268;49.346;9.522;2024-03-08T18:18:48;9.20;99.90
10441;DHT22;5268;49.346;9.522;2024-03-08T18:23:51;9.10;99.90
10441;DHT22;5268;49.346;9.522;2024-03-08T18:28:54;9.00;99.90
10441;DHT22;5268;49.346;9.522;2024-03-08T18:33:57;9.00;99.90
10441;DHT22;5268;49.346;9.522;2024-03-08T18:39:00;8.90;99.90
10441;DHT22;5268;49.346;9.522;2024-03-08T18:44:06;8.80;99.90
10441;DHT22;5268;49.346;9.522;2024-03-08T18:49:08;8.70;99.90
10441;DHT22;5268;49.346;9.522;2024-03-08T18:54:09;8.70;99.90
10441;DHT22;5268;49.346;9.522;2024-03-08T18:59:14;8.50;99.90
10441;DHT22;5268;49.346;9.522;2024-03-08T19:04:16;8.40;99.90
10441;DHT22;5268;49.346;9.522;2024-03-08T19:09:18;8.30;99.90
10441;DHT22;5268;49.346;9.522;2024-03-08T19:14:22;8.20;99.90
10441;DHT22;5268;49.346;9.522;2024-03-08T19:19:24;8.10;99.90
10441;DHT22;5268;49.346;9.522;2024-03-08T19:24:26;8.00;99.90
10441;DHT22;5268;49.346;9.522;2024-03-08T19:29:29;7.90;99.90
10441;DHT22;5268;49.346;9.522;2024-03-08T19:34:31;7.90;99.90
10441;DHT22;5268;49.346;9.522;2024-03-08T19:39:34;7.80;99.90
10441;DHT22;5268;49.346;9.522;2024-03-08T19:44:37;7.60;99.90
10441;DHT22;5268;49.346;9.522;2024-03-08T19:49:40;7.60;99.90
10441;DHT22;5268;49.346;9.522;2024-03-08T19:54:42;7.50;99.90
10441;DHT22;5268;49.346;9.522;2024-03-08T19:59:46;7.40;99.90
10441;DHT22;5268;49.346;9.522;2024-03-08T20:04:48;7.40;99.90
10441;DHT22;5268;49.346;9.522;2024-03-08T20:09:49;7.20;99.90
10441;DHT22;5268;49.346;9.522;2024-03-08T20:14:53;7.10;99.90
10441;DHT22;5268;49.346;9.522;2024-03-08T20:19:55;6.90;99.90
10441;DHT22;5268;49.346;9.522;2024-03-08T20:24:57;6.80;99.90
10441;DHT22;5268;49.346;9.522;2024-03-08T20:30:00;6.70;99.90
10441;DHT22;5268;49.346;9.522;2024-03-08T20:35:02;6.70;99.90
10441;DHT22;5268;49.346;9.522;2024-03-08T20:40:05;6.60;99.90
10441;DHT22;5268;49.346;9.522;2024-03-08T20:45:09;6.50;99.90
10441;DHT22;5268;49.346;9.522;2024-03-08T20:50:11;6.50;99.90
10441;DHT22;5268;49.346;9.522;2024-03-08T20:55:14;6.50;99.90
10441;DHT22;5268;49.346;9.522;2024-03-08T21:00:20;6.30;99.90
10441;DHT22;5268;49.346;9.522;2024-03-08T21:05:36;6.20;99.90
10441;DHT22;5268;49.346;9.522;2024-03-08T21:10:39;6.10;99.90
10441;DHT22;5268;49.346;9.522;2024-03-08T21:15:42;6.00;99.90
10441;DHT22;5268;49.346;9.522;2024-03-08T21:20:44;5.90;99.90
10441;DHT22;5268;49.346;9.522;2024-03-08T21:25:47;5.80;99.90
10441;DHT22;5268;49.346;9.522;2024-03-08T21:30:51;5.70;99.90
10441;DHT22;5268;49.346;9.522;2024-03-08T21:35:54;5.60;99.90
10441;DHT22;5268;49.346;9.522;2024-03-08T21:40:56;5.50;99.90
10441;DHT22;5268;49.346;9.522;2024-03-08T21:46:03;5.40;99.90
10441;DHT22;5268;49.346;9.522;2024-03-08T21:51:05;5.30;99.90
10441;DHT22;5268;49.346;9.522;2024-03-08T21:56:07;5.20;99.90
10441;DHT22;5268;49.346;9.522;2024-03-08T22:01:12;5.10;99.90
10441;DHT22;5268;49.346;9.522;2024-03-08T22:06:14;5.00;99.90
10441;DHT22;5268;49.346;9.522;2024-03-08T22:11:16;4.90;99.90
10441;DHT22;5268;49.346;9.522;2024-03-08T22:16:19;4.80;99.90
10441;DHT22;5268;49.346;9.522;2024-03-08T22:21:21;4.70;99.90
10441;DHT22;5268;49.346;9.522;2024-03-08T22:26:23;4.70;99.90
10441;DHT22;5268;49.346;9.522;2024-03-08T22:31:26;4.60;99.90
10441;DHT22;5268;49.346;9.522;2024-03-08T22:36:29;4.60;99.90
10441;DHT22;5268;49.346;9.522;2024-03-08T22:41:31;4.60;99.90
10441;DHT22;5268;49.346;9.522;2024-03-08T22:46:38;4.50;99.90
10441;DHT22;5268;49.346;9.522;2024-03-08T22:51:41;4.50;99.90
